createdAt,value
2023-03-06T00:37:12.898Z,28.23
2023-03-06T00:38:12.900Z,27.47
2023-03-06T00:39:12.939Z,26.84
2023-03-06T00:40:12.986Z,27.81
2023-03-06T00:41:12.988Z,27.25
2023-03-06T00:42:13.046Z,27.12
2023-03-06T01:00:13.565Z,30.20
2023-03-06T01:01:13.606Z,30.19
2023-03-06T01:02:13.621Z,27.57
2023-03-06T01:03:13.609Z,28.93
2023-03-06T01:04:13.658Z,27.10
2023-03-06T01:05:13.666Z,27.51
2023-03-06T01:06:13.694Z,28.29
2023-03-06T01:07:13.734Z,27.95
2023-03-06T01:08:13.717Z,27.14
2023-03-06T01:09:13.761Z,28.85
2023-03-06T01:10:13.775Z,26.72
2023-03-06T01:11:13.782Z,30.34
2023-03-06T01:12:13.791Z,28.45
2023-03-06T01:13:13.797Z,26.23
2023-03-06T01:14:13.796Z,29.80
2023-03-06T01:15:13.809Z,27.55
2023-03-06T01:16:13.851Z,31.26
2023-03-06T01:17:14.354Z,28.35
2023-03-06T01:18:13.771Z,27.34
2023-03-06T01:19:13.780Z,28.04
2023-03-06T01:20:13.781Z,26.11
2023-03-06T01:21:13.804Z,29.04
2023-03-06T01:22:13.806Z,26.11
2023-03-06T01:23:13.818Z,29.91
2023-03-06T01:24:13.801Z,27.79
2023-03-06T01:25:13.824Z,27.57
2023-03-06T01:26:13.811Z,27.67
2023-03-06T01:27:13.835Z,31.79
2023-03-06T01:28:13.847Z,28.44
2023-03-06T01:29:13.905Z,29.60
2023-03-06T01:30:13.934Z,29.11
2023-03-06T01:32:14.035Z,31.38
2023-03-06T01:33:14.028Z,30.43
2023-03-06T01:35:14.090Z,29.78
2023-03-06T01:40:14.262Z,29.90
2023-03-06T01:41:14.341Z,30.18
2023-03-06T01:42:14.339Z,30.56
2023-03-06T01:43:14.450Z,28.52
2023-03-06T01:44:14.382Z,33.08
2023-03-06T01:45:14.574Z,28.32
2023-03-06T01:46:14.427Z,31.26
2023-03-06T01:47:14.443Z,28.47
2023-03-06T01:48:14.479Z,29.91
2023-03-06T01:49:14.490Z,29.52
2023-03-06T01:50:14.553Z,31.57
2023-03-06T01:51:14.599Z,31.69
2023-03-06T01:52:14.684Z,28.46
2023-03-06T01:53:14.658Z,27.98
2023-03-06T01:54:14.691Z,27.42
2023-03-06T01:55:14.713Z,28.40
2023-03-06T01:56:14.718Z,29.44
2023-03-06T01:57:14.778Z,32.19
2023-03-06T01:58:14.813Z,30.89
2023-03-06T01:59:14.847Z,31.63
2023-03-06T02:00:14.899Z,29.91
2023-03-06T02:01:15.049Z,28.63
2023-03-06T02:02:14.986Z,30.96
2023-03-06T02:03:14.977Z,29.62
2023-03-06T02:04:15.006Z,30.68
2023-03-06T02:05:15.064Z,30.54
2023-03-06T02:08:15.149Z,29.14
2023-03-06T02:57:16.743Z,34.25
2023-03-06T03:04:16.915Z,39.68
2023-03-06T03:05:16.908Z,39.27
2023-03-06T03:06:16.937Z,37.78
2023-03-06T03:07:16.998Z,38.25
2023-03-06T03:08:17.030Z,36.17
2023-03-06T03:27:17.857Z,35.68
2023-03-06T03:28:17.926Z,37.28
2023-03-06T03:29:17.967Z,34.78
2023-03-06T03:30:18.048Z,36.36
2023-03-06T03:31:18.122Z,39.64
2023-03-06T03:32:18.206Z,36.06
2023-03-06T03:33:18.193Z,36.89
2023-03-06T03:34:18.271Z,37.61
2023-03-06T03:35:18.313Z,37.59
2023-03-06T03:36:18.322Z,39.31
2023-03-06T03:37:18.350Z,37.18
2023-03-06T03:38:18.429Z,37.49
2023-03-06T03:39:18.438Z,37.66
2023-03-06T03:40:18.456Z,39.99
2023-03-06T03:41:18.528Z,35.44
2023-03-06T04:24:20.217Z,34.75
2023-03-06T04:25:20.249Z,35.32
2023-03-06T04:26:20.285Z,33.17
2023-03-06T04:27:20.337Z,34.06
2023-03-06T04:28:20.313Z,35.72
2023-03-06T04:29:20.366Z,33.70
2023-03-06T04:30:20.436Z,32.66
2023-03-06T04:31:20.534Z,32.23
2023-03-06T04:32:21.649Z,33.45
2023-03-06T04:33:20.561Z,32.66
2023-03-06T04:34:20.608Z,32.88
2023-03-06T04:35:20.707Z,31.67
2023-03-06T04:36:20.734Z,34.80
2023-03-06T04:37:20.771Z,30.29
2023-03-06T04:38:20.816Z,30.80
2023-03-06T04:39:20.862Z,32.92
2023-03-06T04:40:20.902Z,30.54
2023-03-06T04:41:20.915Z,30.93
2023-03-06T04:42:20.952Z,32.25
2023-03-06T04:43:20.982Z,30.52
2023-03-06T04:44:20.984Z,30.72
2023-03-06T04:45:21.150Z,30.75
2023-03-06T04:46:21.046Z,33.00
2023-03-06T04:47:21.083Z,31.21
2023-03-06T04:48:21.102Z,30.21
2023-03-06T04:49:21.116Z,29.53
2023-03-06T04:50:21.128Z,28.80
2023-03-06T04:51:21.223Z,31.64
2023-03-06T04:52:21.194Z,29.15
2023-03-06T04:53:21.233Z,30.76
2023-03-06T04:54:21.274Z,28.46
2023-03-06T05:04:21.613Z,26.23
2023-03-06T05:05:21.646Z,31.77
2023-03-06T05:06:21.691Z,25.94
2023-03-06T05:07:21.736Z,31.02
2023-03-06T05:08:21.723Z,28.64
2023-03-06T05:09:21.785Z,28.49
2023-03-06T05:16:22.062Z,26.49
2023-03-06T05:17:22.079Z,28.73
2023-03-06T05:18:22.142Z,25.68
2023-03-06T05:19:22.170Z,28.67
2023-03-06T05:20:22.232Z,30.25
2023-03-06T05:21:22.294Z,27.42
2023-03-06T05:22:22.346Z,28.47
2023-03-06T05:23:22.400Z,28.37
2023-03-06T05:24:22.440Z,26.98
2023-03-06T06:45:50.740Z,26.71
2023-03-06T09:22:47.945Z,123.06
2023-03-06T09:23:47.851Z,122.72
2023-03-06T09:24:47.868Z,115.56
2023-03-06T09:25:47.913Z,120.70
2023-03-06T09:26:49.408Z,122.14
2023-03-06T09:27:51.442Z,123.00
2023-03-06T09:28:48.923Z,123.34
2023-03-06T09:29:48.019Z,123.43
2023-03-06T09:30:47.994Z,108.29
2023-03-06T09:31:47.905Z,123.21
2023-03-06T09:32:47.964Z,113.55
2023-03-06T09:33:47.866Z,114.01
2023-03-06T09:34:47.896Z,113.92
2023-03-06T09:35:47.959Z,125.99
2023-03-06T09:36:56.872Z,122.74
2023-03-06T09:37:49.218Z,123.14
2023-03-06T09:38:48.143Z,124.06
2023-03-06T09:39:47.880Z,124.76
2023-03-06T09:40:47.930Z,123.54
2023-03-06T09:41:47.901Z,129.31
2023-03-06T09:58:48.813Z,142.10
2023-03-06T09:59:48.884Z,148.57
2023-03-06T10:00:48.940Z,153.20
2023-03-06T10:01:48.933Z,151.99
2023-03-06T10:02:49.131Z,159.37
2023-03-06T10:03:49.093Z,168.11
2023-03-06T10:04:49.137Z,173.16
2023-03-06T10:05:49.117Z,175.50
2023-03-06T10:06:49.192Z,181.81
2023-03-06T10:07:49.108Z,187.55
2023-03-06T10:08:49.138Z,194.64
2023-03-06T10:09:49.355Z,198.65
2023-03-06T10:10:49.205Z,206.77
2023-03-06T10:11:49.330Z,215.04
2023-03-06T10:12:49.304Z,220.88
2023-03-06T10:13:49.459Z,225.59
2023-03-06T10:14:49.489Z,234.64
2023-03-06T10:15:49.426Z,239.21
2023-03-06T10:16:49.482Z,242.39
2023-03-06T10:17:49.503Z,248.67
2023-03-06T10:18:50.555Z,249.15
2023-03-06T10:19:49.574Z,248.83
2023-03-06T10:20:49.592Z,250.00
2023-03-06T10:21:49.586Z,248.43
2023-03-06T10:23:00.740Z,250.00
2023-03-06T10:23:50.968Z,250.38
2023-03-06T10:24:49.576Z,251.86
2023-03-06T10:25:49.562Z,255.60
2023-03-06T10:26:49.680Z,261.42
2023-03-06T10:27:49.691Z,270.30
2023-03-06T10:28:49.579Z,250.00
2023-03-06T10:30:01.658Z,249.26
2023-03-06T10:30:50.568Z,249.65
2023-03-06T10:31:49.773Z,251.09
2023-03-06T10:32:49.752Z,253.45
2023-03-06T10:33:49.535Z,257.13
2023-03-06T10:34:49.508Z,263.04
2023-03-06T10:35:49.584Z,247.04
2023-03-06T10:36:49.540Z,247.59
2023-03-06T10:37:49.508Z,246.38
2023-03-06T10:38:49.988Z,248.12
2023-03-06T10:39:49.496Z,248.01
2023-03-06T10:40:49.519Z,246.34
2023-03-06T10:41:49.566Z,245.73
2023-03-06T10:42:56.194Z,245.78
2023-03-06T10:43:50.631Z,246.06
2023-03-06T10:44:49.554Z,246.74
2023-03-06T10:45:49.852Z,247.98
2023-03-06T10:46:49.573Z,250.58
2023-03-06T10:47:49.559Z,250.82
2023-03-06T10:48:49.995Z,271.68
2023-03-06T10:49:49.591Z,283.30
2023-03-06T10:50:49.499Z,281.40
2023-03-06T10:51:49.532Z,260.55
2023-03-06T10:52:49.587Z,248.43
2023-03-06T10:53:49.675Z,249.30
2023-03-06T10:54:49.704Z,250.00
2023-03-06T10:55:49.782Z,250.00
2023-03-06T10:56:49.814Z,249.40
2023-03-06T10:57:49.881Z,249.16
2023-03-06T10:58:49.926Z,249.68
2023-03-06T10:59:50.010Z,248.62
2023-03-06T11:00:50.039Z,249.65
2023-03-06T11:01:50.096Z,247.82
2023-03-06T11:02:50.139Z,248.22
2023-03-06T11:03:50.231Z,249.35
2023-03-06T11:04:50.307Z,248.43
2023-03-06T11:05:50.306Z,249.86
2023-03-06T11:06:50.384Z,250.00
2023-03-06T11:07:50.425Z,249.86
2023-03-06T11:08:50.497Z,249.40
2023-03-06T11:09:50.537Z,249.62
2023-03-06T11:10:50.577Z,249.71
2023-03-06T11:11:51.520Z,249.15
2023-03-06T11:12:50.657Z,248.43
2023-03-06T11:13:50.701Z,249.39
2023-03-06T11:14:50.688Z,248.51
2023-03-06T11:15:50.799Z,249.75
2023-03-06T11:16:50.699Z,247.25
2023-03-06T11:17:50.688Z,247.87
2023-03-06T11:19:51.024Z,247.45
2023-03-06T11:20:52.846Z,249.14
2023-03-06T11:21:50.699Z,249.34
2023-03-06T11:22:50.730Z,249.30
2023-03-06T11:23:50.738Z,248.58
2023-03-06T11:24:50.756Z,250.00
2023-03-06T11:25:50.780Z,249.92
2023-03-06T11:26:51.282Z,250.00
2023-03-06T11:27:50.794Z,248.95
2023-03-06T11:28:50.853Z,249.38
2023-03-06T11:29:50.892Z,248.87
2023-03-06T11:30:50.891Z,248.29
2023-03-06T11:31:50.923Z,248.16
2023-03-06T11:32:50.981Z,247.35
2023-03-06T11:33:51.034Z,244.67
2023-03-06T11:34:51.008Z,244.17
2023-03-06T11:35:51.079Z,243.76
2023-03-06T11:36:51.117Z,237.94
2023-03-06T11:37:51.131Z,233.22
2023-03-06T11:38:51.122Z,212.94
2023-03-06T11:39:51.493Z,162.13
2023-03-06T11:40:51.141Z,141.86
2023-03-06T11:41:51.179Z,153.61
2023-03-06T11:42:51.175Z,152.72
2023-03-06T11:43:51.222Z,146.81
2023-03-06T11:44:51.530Z,157.10
2023-03-06T11:45:51.262Z,136.60
2023-03-06T11:46:51.332Z,131.55
2023-03-06T11:47:51.350Z,131.43
2023-03-06T11:48:51.388Z,120.29
2023-03-06T11:49:51.547Z,134.81
2023-03-06T11:50:51.484Z,119.86
2023-03-06T11:51:51.499Z,127.20
2023-03-06T11:52:51.548Z,109.64
2023-03-06T11:53:51.587Z,26.29
2023-03-06T11:54:52.042Z,15.65
2023-03-06T11:55:51.631Z,41.85
2023-03-06T11:56:51.650Z,63.37
2023-03-06T11:57:51.669Z,81.79
2023-03-06T11:58:51.653Z,31.35
2023-03-06T11:59:51.694Z,5.59
2023-03-06T12:00:51.744Z,0.00
2023-03-06T12:01:51.784Z,1.97
2023-03-06T12:02:51.762Z,35.48
2023-03-06T12:03:51.748Z,55.28
2023-03-06T12:04:52.021Z,7.03
2023-03-06T12:05:51.733Z,0.00
2023-03-06T12:06:51.763Z,25.67
2023-03-06T12:07:51.799Z,28.92
2023-03-06T12:08:51.774Z,53.84
2023-03-06T12:09:51.811Z,37.56
2023-03-06T12:10:52.309Z,7.30
2023-03-06T12:11:51.801Z,25.69
2023-03-06T12:12:51.814Z,27.60
2023-03-06T12:14:52.008Z,6.43
2023-03-06T12:15:51.821Z,32.21
2023-03-06T12:16:51.866Z,57.53
2023-03-06T12:17:51.838Z,72.10
2023-03-06T12:18:51.861Z,32.27
2023-03-06T12:19:52.022Z,22.41
2023-03-06T12:20:51.869Z,27.13
2023-03-06T12:21:52.407Z,38.51
2023-03-06T12:22:57.749Z,65.50
2023-03-06T12:24:52.064Z,66.89
2023-03-06T12:25:51.961Z,38.60
2023-03-06T12:26:51.948Z,41.36
2023-03-06T12:27:51.974Z,55.30
2023-03-06T12:28:51.950Z,65.88
2023-03-06T12:29:51.947Z,82.43
2023-03-06T12:30:52.054Z,97.10
2023-03-06T12:31:51.902Z,119.52
2023-03-06T12:32:52.013Z,130.91
2023-03-06T12:33:51.912Z,138.30
2023-03-06T12:34:51.928Z,150.12
2023-03-06T12:36:51.964Z,161.51
2023-03-06T12:37:51.962Z,165.52
2023-03-06T12:38:51.977Z,168.34
2023-03-06T12:39:51.957Z,171.18
2023-03-06T12:40:51.998Z,173.74
2023-03-06T12:41:51.994Z,175.64
2023-03-06T12:42:52.517Z,176.50
2023-03-06T12:43:52.052Z,178.51
2023-03-06T12:44:52.025Z,180.67
2023-03-06T12:45:52.160Z,181.42
2023-03-06T12:46:52.023Z,182.96
2023-03-06T12:47:52.053Z,183.03
2023-03-06T12:48:52.048Z,183.92
2023-03-06T12:49:52.044Z,185.23
2023-03-06T12:50:52.052Z,184.27
2023-03-06T12:51:52.077Z,185.54
2023-03-06T12:52:52.121Z,186.96
2023-03-06T12:53:52.057Z,186.37
2023-03-06T12:54:52.080Z,188.05
2023-03-06T12:55:52.100Z,187.95
2023-03-06T12:56:52.062Z,187.75
2023-03-06T12:57:52.052Z,187.81
2023-03-06T12:58:52.053Z,189.46
2023-03-06T12:59:52.163Z,189.39
2023-03-06T13:00:55.294Z,190.28
2023-03-06T13:01:53.139Z,190.34
2023-03-06T13:02:52.118Z,190.52
2023-03-06T13:03:52.074Z,190.58
2023-03-06T13:04:52.099Z,190.55
2023-03-06T13:05:52.181Z,190.33
2023-03-06T13:06:52.101Z,190.95
2023-03-06T13:07:52.084Z,191.46
2023-03-06T13:08:52.116Z,190.17
2023-03-06T13:09:52.124Z,190.51
2023-03-06T13:10:52.128Z,191.19
2023-03-06T13:11:52.094Z,190.75
2023-03-06T13:12:52.142Z,190.93
2023-03-06T13:13:52.155Z,191.34
2023-03-06T13:14:54.675Z,191.08
2023-03-06T13:15:52.195Z,190.97
2023-03-06T13:16:52.214Z,191.18
2023-03-06T13:17:52.179Z,190.11
2023-03-06T13:18:52.197Z,191.27
2023-03-06T13:19:52.166Z,191.42
2023-03-06T13:20:52.179Z,191.39
2023-03-06T13:21:52.162Z,190.99
2023-03-06T13:22:52.164Z,191.60
2023-03-06T13:23:52.169Z,191.47
2023-03-06T13:24:54.929Z,191.44
2023-03-06T13:25:52.168Z,191.48
2023-03-06T13:26:52.141Z,191.45
2023-03-06T13:27:52.139Z,191.54
2023-03-06T13:28:52.125Z,191.32
2023-03-06T13:29:52.082Z,191.53
2023-03-06T13:30:53.290Z,191.09
2023-03-06T13:31:52.068Z,191.62
2023-03-06T13:32:52.074Z,191.23
2023-03-06T13:33:52.101Z,191.11
2023-03-06T13:34:52.061Z,190.77
2023-03-06T13:35:52.107Z,190.38
2023-03-06T13:36:52.023Z,190.82
2023-03-06T13:37:52.086Z,190.37
2023-03-06T13:38:52.043Z,190.56
2023-03-06T13:39:52.052Z,189.91
2023-03-06T13:40:52.041Z,190.13
2023-03-06T13:41:52.002Z,189.54
2023-03-06T13:42:52.007Z,188.41
2023-03-06T13:43:52.010Z,189.09
2023-03-06T13:44:51.969Z,188.78
2023-03-06T13:45:52.021Z,188.80
2023-03-06T13:46:51.983Z,188.54
2023-03-06T13:48:30.272Z,188.32
2023-03-06T13:48:52.968Z,188.42
2023-03-06T13:49:51.970Z,188.44
2023-03-06T13:50:51.962Z,187.46
2023-03-06T13:51:51.965Z,187.78
2023-03-06T13:52:53.690Z,187.75
2023-03-06T13:53:51.960Z,188.88
2023-03-06T13:54:51.923Z,188.34
2023-03-06T13:55:51.938Z,188.85
2023-03-06T13:56:51.888Z,187.60
2023-03-06T13:57:51.921Z,186.83
2023-03-06T13:58:51.897Z,187.06
2023-03-06T13:59:57.005Z,187.25
2023-03-06T14:00:52.871Z,187.36
2023-03-06T14:01:51.974Z,187.38
2023-03-06T14:02:51.911Z,187.42
2023-03-06T14:03:51.852Z,186.06
2023-03-06T14:04:51.880Z,186.58
2023-03-06T14:05:51.840Z,184.29
2023-03-06T14:06:51.833Z,181.41
2023-03-06T14:07:51.849Z,181.49
2023-03-06T14:08:51.819Z,180.36
2023-03-06T14:09:51.816Z,180.50
2023-03-06T14:10:51.815Z,180.94
2023-03-06T14:11:51.803Z,181.79
2023-03-06T14:12:51.815Z,182.56
2023-03-06T14:13:51.847Z,183.66
2023-03-06T14:14:51.885Z,185.52
2023-03-06T14:15:51.986Z,186.86
2023-03-06T14:16:52.042Z,188.26
2023-03-06T14:17:52.048Z,191.16
2023-03-06T14:18:52.099Z,192.99
2023-03-06T14:19:52.132Z,194.27
2023-03-06T14:20:52.185Z,196.44
2023-03-06T14:21:52.259Z,196.43
2023-03-06T14:22:52.248Z,198.02
2023-03-06T14:23:52.231Z,199.88
2023-03-06T14:24:52.229Z,202.80
2023-03-06T14:25:52.233Z,203.37
2023-03-06T14:26:52.238Z,206.02
2023-03-06T14:27:53.560Z,207.96
2023-03-06T14:28:52.392Z,208.75
2023-03-06T14:29:52.389Z,210.70
2023-03-06T14:30:52.442Z,212.00
2023-03-06T14:31:52.374Z,213.43
2023-03-06T14:32:52.352Z,213.98
2023-03-06T14:33:52.360Z,214.45
2023-03-06T14:34:52.378Z,213.46
2023-03-06T14:35:53.245Z,215.54
2023-03-06T14:36:52.364Z,216.23
2023-03-06T14:37:52.364Z,216.45
2023-03-06T14:38:52.371Z,216.96
2023-03-06T14:39:52.357Z,216.96
2023-03-06T14:40:52.384Z,218.08
2023-03-06T14:41:52.379Z,217.90
2023-03-06T14:42:52.394Z,218.43
2023-03-06T14:43:52.415Z,219.47
2023-03-06T14:44:52.402Z,220.25
2023-03-06T14:45:52.385Z,219.60
2023-03-06T14:46:52.446Z,220.33
2023-03-06T14:47:52.419Z,218.87
2023-03-06T14:48:52.415Z,219.29
2023-03-06T14:49:52.399Z,218.70
2023-03-06T14:50:52.455Z,219.61
2023-03-06T14:51:52.416Z,218.17
2023-03-06T14:52:52.423Z,219.05
2023-03-06T14:53:52.382Z,218.57
2023-03-06T14:54:52.411Z,219.37
2023-03-06T14:55:52.440Z,218.00
2023-03-06T14:56:52.431Z,217.41
2023-03-06T14:57:52.448Z,218.12
2023-03-06T14:58:52.458Z,216.33
2023-03-06T14:59:52.450Z,218.52
2023-03-06T15:00:52.454Z,217.47
2023-03-06T15:01:52.461Z,216.41
2023-03-06T15:02:52.493Z,217.29
2023-03-06T15:03:52.429Z,217.62
2023-03-06T15:04:52.464Z,216.48
2023-03-06T15:05:52.464Z,216.28
2023-03-06T15:06:52.466Z,215.77
2023-03-06T15:07:52.456Z,214.94
2023-03-06T15:08:52.461Z,215.90
2023-03-06T15:09:52.440Z,215.27
2023-03-06T15:10:52.469Z,214.48
2023-03-06T15:11:52.500Z,213.91
2023-03-06T15:12:52.504Z,213.87
2023-03-06T15:13:52.519Z,213.83
2023-03-06T15:14:52.562Z,214.16
2023-03-06T15:15:52.630Z,212.64
2023-03-06T15:16:52.626Z,211.32
2023-03-06T15:17:52.692Z,212.62
2023-03-06T15:18:52.742Z,211.29
2023-03-06T15:19:52.817Z,211.18
2023-03-06T15:20:52.839Z,209.64
2023-03-06T15:21:52.861Z,210.45
2023-03-06T15:22:52.932Z,210.46
2023-03-06T15:23:52.936Z,210.47
2023-03-06T15:24:52.987Z,211.03
2023-03-06T15:25:52.943Z,211.13
2023-03-06T15:26:52.967Z,209.35
2023-03-06T15:27:52.977Z,209.91
2023-03-06T15:28:59.830Z,209.15
2023-03-06T15:29:53.970Z,209.18
2023-03-06T15:30:53.014Z,209.16
2023-03-06T15:31:53.049Z,208.03
2023-03-06T15:32:52.958Z,206.99
2023-03-06T15:33:52.949Z,206.01
2023-03-06T15:34:53.007Z,206.79
2023-03-06T15:35:53.027Z,206.37
2023-03-06T15:36:52.879Z,206.43
2023-03-06T15:37:52.883Z,206.21
2023-03-06T15:38:52.881Z,204.99
2023-03-06T15:39:52.888Z,205.70
2023-03-06T15:40:52.909Z,204.80
2023-03-06T15:41:52.965Z,205.20
2023-03-06T15:42:52.965Z,204.39
2023-03-06T15:43:52.988Z,204.14
2023-03-06T15:44:53.150Z,205.15
2023-03-06T15:45:53.164Z,205.28
2023-03-06T15:46:59.268Z,203.09
2023-03-06T15:47:54.179Z,203.18
2023-03-06T15:48:53.151Z,203.18
2023-03-06T15:49:53.357Z,203.33
2023-03-06T15:50:53.205Z,203.40
2023-03-06T15:51:53.141Z,203.18
2023-03-06T15:52:53.151Z,202.28
2023-03-06T15:53:55.094Z,202.38
2023-03-06T15:54:54.127Z,202.48
2023-03-06T15:55:53.113Z,201.73
2023-03-06T15:56:53.092Z,201.41
2023-03-06T15:57:53.095Z,201.33
2023-03-06T15:58:53.165Z,200.64
2023-03-06T15:59:53.104Z,201.64
2023-03-06T16:00:53.124Z,199.39
2023-03-06T16:01:53.072Z,199.07
2023-03-06T16:02:53.064Z,199.64
2023-03-06T16:03:53.099Z,199.00
2023-03-06T16:04:53.209Z,198.70
2023-03-06T16:05:53.213Z,198.78
2023-03-06T16:06:53.244Z,198.84
2023-03-06T16:07:53.286Z,199.06
2023-03-06T16:08:53.396Z,198.41
2023-03-06T16:09:53.423Z,198.61
2023-03-06T16:10:53.480Z,198.87
2023-03-06T16:11:53.526Z,198.63
2023-03-06T16:12:53.534Z,198.09
2023-03-06T16:13:53.553Z,197.86
2023-03-06T16:14:53.587Z,197.28
2023-03-06T16:15:53.583Z,197.75
2023-03-06T16:16:53.664Z,197.45
2023-03-06T16:17:53.620Z,197.38
2023-03-06T16:18:53.630Z,197.58
2023-03-06T16:19:53.657Z,197.53
2023-03-06T16:20:53.637Z,197.50
2023-03-06T16:21:53.664Z,197.15
2023-03-06T16:22:53.687Z,197.60
2023-03-06T16:23:53.681Z,197.46
2023-03-06T16:24:53.710Z,197.45
2023-03-06T16:25:53.711Z,197.54
2023-03-06T16:26:53.729Z,197.96
2023-03-06T16:27:53.775Z,198.48
2023-03-06T16:28:53.792Z,197.47
2023-03-06T16:29:53.775Z,198.16
2023-03-06T16:30:53.868Z,197.86
2023-03-06T16:31:53.894Z,197.82
2023-03-06T16:32:53.991Z,197.48
2023-03-06T16:33:54.028Z,196.26
2023-03-06T16:34:54.078Z,196.32
2023-03-06T16:35:54.179Z,196.68
2023-03-06T16:36:54.224Z,195.83
2023-03-06T16:37:54.277Z,196.39
2023-03-06T16:38:54.357Z,196.18
2023-03-06T16:39:54.412Z,196.63
2023-03-06T16:40:54.467Z,195.27
2023-03-06T16:41:54.522Z,195.38
2023-03-06T16:42:55.275Z,195.38
2023-03-06T16:43:54.658Z,195.30
2023-03-06T16:44:54.724Z,195.52
2023-03-06T16:45:54.950Z,195.42
2023-03-06T16:46:54.838Z,195.01
2023-03-06T16:47:54.908Z,195.33
2023-03-06T16:48:54.996Z,195.99
2023-03-06T16:49:55.078Z,194.81
2023-03-06T16:50:55.117Z,194.78
2023-03-06T16:51:55.197Z,195.20
2023-03-06T16:52:55.208Z,195.62
2023-03-06T16:53:55.299Z,194.40
2023-03-06T16:54:55.370Z,193.72
2023-03-06T16:55:55.424Z,194.74
2023-03-06T16:56:55.475Z,194.66
2023-03-06T16:57:55.553Z,194.04
2023-03-06T16:58:55.543Z,192.50
2023-03-06T16:59:55.611Z,192.96
2023-03-06T17:00:55.689Z,192.42
2023-03-06T17:01:55.766Z,192.12
2023-03-06T17:02:55.813Z,192.92
2023-03-06T17:03:55.897Z,192.67
2023-03-06T17:04:55.937Z,193.38
2023-03-06T17:05:56.018Z,192.30
2023-03-06T17:06:56.096Z,191.83
2023-03-06T17:07:56.113Z,192.45
2023-03-06T17:08:56.181Z,193.57
2023-03-06T17:09:56.237Z,191.81
2023-03-06T17:10:56.285Z,191.51
2023-03-06T17:11:56.349Z,192.15
2023-03-06T17:12:56.402Z,191.94
2023-03-06T17:13:56.429Z,192.30
2023-03-06T17:14:56.509Z,192.00
2023-03-06T17:15:56.657Z,191.90
2023-03-06T17:16:57.250Z,192.82
2023-03-06T17:17:56.633Z,192.52
2023-03-06T17:18:56.646Z,191.34
2023-03-06T17:19:56.748Z,192.09
2023-03-06T17:20:56.774Z,190.94
2023-03-06T17:21:56.826Z,190.88
2023-03-06T17:22:56.855Z,190.19
2023-03-06T17:23:56.941Z,190.72
2023-03-06T17:24:56.995Z,191.14
2023-03-06T17:25:56.977Z,190.10
2023-03-06T17:26:57.015Z,190.58
2023-03-06T17:27:57.041Z,190.43
2023-03-06T17:28:57.087Z,189.17
2023-03-06T17:29:57.090Z,189.79
2023-03-06T17:30:57.180Z,190.50
2023-03-06T17:31:57.140Z,190.60
2023-03-06T17:32:57.143Z,189.70
2023-03-06T17:33:57.152Z,189.18
2023-03-06T17:34:57.175Z,190.15
2023-03-06T17:35:57.207Z,188.31
2023-03-06T17:36:57.203Z,188.46
2023-03-06T17:37:57.201Z,189.51
2023-03-06T17:38:57.215Z,188.62
2023-03-06T17:39:57.236Z,189.56
2023-03-06T17:40:57.263Z,189.17
2023-03-06T17:41:57.264Z,188.59
2023-03-06T17:42:57.276Z,190.68
2023-03-06T17:43:57.267Z,188.98
2023-03-06T17:44:57.282Z,189.14
2023-03-06T17:45:57.300Z,188.34
2023-03-06T17:46:57.341Z,188.51
2023-03-06T17:47:57.357Z,188.65
2023-03-06T17:48:57.359Z,188.92
2023-03-06T17:49:57.380Z,189.08
2023-03-06T17:50:57.399Z,188.28
2023-03-06T17:51:57.419Z,187.24
2023-03-06T17:52:57.437Z,187.20
2023-03-06T17:53:57.452Z,188.11
2023-03-06T17:54:57.475Z,188.57
2023-03-06T17:55:57.490Z,187.86
2023-03-06T17:56:57.473Z,187.58
2023-03-06T17:57:57.480Z,187.49
2023-03-06T17:58:57.507Z,185.96
2023-03-06T17:59:57.476Z,186.59
2023-03-06T18:00:57.475Z,186.34
2023-03-06T18:01:57.496Z,186.83
2023-03-06T18:02:57.454Z,187.07
2023-03-06T18:03:57.480Z,186.95
2023-03-06T18:04:57.534Z,187.38
2023-03-06T18:05:57.472Z,187.14
2023-03-06T18:06:57.514Z,186.28
2023-03-06T18:07:57.577Z,185.71
2023-03-06T18:08:57.558Z,186.41
2023-03-06T18:09:57.567Z,186.78
2023-03-06T18:10:57.571Z,185.05
2023-03-06T18:11:57.594Z,186.17
2023-03-06T18:13:57.590Z,186.17
2023-03-06T18:14:57.616Z,186.33
2023-03-06T18:15:57.640Z,185.47
2023-03-06T18:16:57.602Z,185.84
2023-03-06T18:17:57.625Z,183.74
2023-03-06T18:19:57.699Z,184.39
2023-03-06T18:20:57.685Z,184.99
2023-03-06T18:21:57.685Z,184.75
2023-03-06T18:22:57.670Z,184.76
2023-03-06T18:23:57.713Z,185.10
2023-03-06T18:24:57.707Z,183.54
2023-03-06T18:25:57.750Z,184.52
2023-03-06T18:26:57.796Z,185.20
2023-03-06T18:27:57.767Z,184.76
2023-03-06T18:28:57.799Z,184.13
2023-03-06T18:29:57.834Z,184.48
2023-03-06T18:30:57.823Z,184.64
2023-03-06T18:31:57.847Z,183.86
2023-03-06T18:32:57.884Z,182.95
2023-03-06T18:33:57.937Z,184.60
2023-03-06T18:34:57.880Z,183.79
2023-03-06T18:35:57.918Z,183.76
2023-03-06T18:36:57.906Z,184.27
2023-03-06T18:37:57.966Z,183.37
2023-03-06T18:38:57.933Z,183.89
2023-03-06T18:39:58.061Z,184.61
2023-03-06T18:40:57.938Z,183.28
2023-03-06T18:41:57.948Z,183.63
2023-03-06T18:42:57.978Z,181.97
2023-03-06T18:43:58.007Z,183.36
2023-03-06T18:44:58.012Z,183.08
2023-03-06T18:45:58.098Z,183.27
2023-03-06T18:46:58.063Z,182.34
2023-03-06T18:48:58.105Z,183.16
2023-03-06T18:49:58.124Z,182.90
2023-03-06T18:50:58.154Z,183.08
2023-03-06T18:51:58.125Z,182.70
2023-03-06T18:52:58.088Z,181.42
2023-03-06T18:53:58.182Z,181.93
2023-03-06T18:55:58.119Z,182.30
2023-03-06T18:56:58.089Z,180.84
2023-03-06T18:57:58.091Z,181.69
2023-03-06T18:58:58.087Z,181.57
2023-03-06T18:59:58.076Z,180.77
2023-03-06T19:00:59.475Z,180.99
2023-03-06T19:01:58.075Z,181.18
2023-03-06T19:03:58.177Z,181.73
2023-03-06T19:04:58.150Z,180.76
2023-03-06T19:05:58.124Z,180.74
2023-03-06T19:06:58.130Z,181.18
2023-03-06T19:07:58.174Z,181.92
2023-03-06T19:08:58.236Z,181.34
2023-03-06T19:09:58.224Z,179.81
2023-03-06T19:10:58.244Z,180.75
2023-03-06T19:11:58.244Z,180.30
2023-03-06T19:12:58.212Z,180.26
2023-03-06T19:13:58.235Z,181.41
2023-03-06T19:14:58.250Z,181.63
2023-03-06T19:15:58.256Z,181.67
2023-03-06T19:16:58.219Z,180.95
2023-03-06T19:17:58.253Z,181.79
2023-03-06T19:18:58.206Z,180.09
2023-03-06T19:19:58.227Z,179.77
2023-03-06T19:20:58.277Z,180.59
2023-03-06T19:21:58.254Z,179.28
2023-03-06T19:22:58.268Z,178.63
2023-03-06T19:23:58.253Z,179.57
2023-03-06T19:24:58.271Z,180.38
2023-03-06T19:25:58.284Z,180.28
2023-03-06T19:26:58.303Z,179.98
2023-03-06T19:27:58.341Z,179.09
2023-03-06T19:28:58.309Z,179.57
2023-03-06T19:29:58.376Z,178.33
2023-03-06T19:30:58.370Z,179.65
2023-03-06T19:31:58.411Z,179.55
2023-03-06T19:32:58.352Z,178.25
2023-03-06T19:33:58.359Z,178.04
2023-03-06T19:34:58.356Z,178.17
2023-03-06T19:35:58.396Z,177.69
2023-03-06T19:36:58.373Z,178.52
2023-03-06T19:37:58.320Z,178.64
2023-03-06T19:38:58.332Z,175.34
2023-03-06T19:39:58.350Z,175.84
2023-03-06T19:40:58.340Z,176.69
2023-03-06T19:41:58.324Z,176.98
2023-03-06T19:42:58.325Z,176.86
2023-03-06T19:43:58.338Z,176.67
2023-03-06T19:44:58.338Z,174.78
2023-03-06T19:45:58.359Z,177.14
2023-03-06T19:46:58.318Z,175.73
2023-03-06T19:47:58.324Z,174.01
2023-03-06T19:48:58.328Z,172.97
2023-03-06T19:49:58.327Z,174.44
2023-03-06T19:50:58.351Z,175.48
2023-03-06T19:51:58.328Z,174.99
2023-03-06T19:52:58.366Z,175.14
2023-03-06T19:53:58.333Z,174.65
2023-03-06T19:54:58.347Z,175.70
2023-03-06T19:55:58.301Z,174.35
2023-03-06T19:56:58.310Z,173.54
2023-03-06T19:57:58.325Z,173.52
2023-03-06T19:58:58.322Z,174.41
2023-03-06T19:59:58.802Z,173.73
2023-03-06T20:00:58.372Z,173.80
2023-03-06T20:01:58.287Z,175.24
2023-03-06T20:02:58.287Z,173.26
2023-03-06T20:03:58.325Z,174.30
2023-03-06T20:04:58.292Z,173.43
2023-03-06T20:05:58.280Z,173.93
2023-03-06T20:06:58.241Z,175.96